Time;durP1;ratioP1;P1;durP2;ratioP2;P2;SDS_P1;SDS_P2;PMS_P1;PMS_P2;Temp;Humidity;BMP_temperature;BMP_pressure;BME280_temperature;BME280_humidity;BME280_pressure;Samples;Min_cycle;Max_cycle;Signal;HPM_P1;HPM_P2
2023/04/07 00:01:24;;;;;;;26.27;12.32;;;1.20;81.90;;;;;;4982364;28;20051;-78
2023/04/07 00:03:51;;;;;;;30.02;11.50;;;1.20;82.10;;;;;;4952753;28;20419;-78
2023/04/07 00:06:18;;;;;;;27.48;12.82;;;1.20;82.00;;;;;;4976278;28;20050;-77
2023/04/07 00:08:45;;;;;;;25.75;12.80;;;1.10;81.80;;;;;;4950712;28;20054;-77
2023/04/07 00:11:12;;;;;;;22.30;11.30;;;1.10;82.40;;;;;;4971782;28;20054;-77
2023/04/07 00:13:39;;;;;;;23.52;10.68;;;1.00;82.30;;;;;;4977484;28;20054;-77
2023/04/07 00:16:06;;;;;;;27.02;11.63;;;1.00;83.20;;;;;;4970083;28;20057;-77
2023/04/07 00:18:33;;;;;;;23.02;11.23;;;1.00;83.10;;;;;;4968448;28;20051;-77
2023/04/07 00:21:00;;;;;;;30.52;11.95;;;1.00;83.40;;;;;;4971342;28;20047;-77
2023/04/07 00:23:26;;;;;;;22.83;10.40;;;0.90;83.30;;;;;;4967444;28;20058;-77
2023/04/07 00:25:53;;;;;;;24.17;11.30;;;0.90;83.50;;;;;;4979709;28;20054;-77
2023/04/07 00:28:20;;;;;;;29.33;12.57;;;0.90;83.40;;;;;;4972501;28;20054;-77
2023/04/07 00:30:47;;;;;;;29.02;11.68;;;0.90;83.70;;;;;;4967625;28;20057;-77
2023/04/07 00:33:14;;;;;;;33.45;12.32;;;0.80;83.30;;;;;;4987789;28;20101;-77
2023/04/07 00:35:41;;;;;;;67.85;28.63;;;0.80;83.30;;;;;;4966882;28;20080;-77
2023/04/07 00:38:07;;;;;;;50.25;24.05;;;0.80;83.80;;;;;;4970103;28;20084;-77
2023/04/07 00:40:35;;;;;;;44.13;21.38;;;0.70;83.70;;;;;;4972220;28;20043;-78
2023/04/07 00:43:02;;;;;;;39.35;16.98;;;0.70;83.40;;;;;;4967870;28;20074;-77
2023/04/07 00:45:29;;;;;;;27.55;12.95;;;0.70;83.60;;;;;;4953547;28;20514;-77
2023/04/07 00:47:57;;;;;;;32.33;12.73;;;0.70;83.30;;;;;;4968523;28;20051;-77
2023/04/07 00:50:24;;;;;;;30.13;12.82;;;0.60;83.40;;;;;;4948586;28;20058;-77
2023/04/07 00:52:53;;;;;;;28.70;12.68;;;0.60;83.20;;;;;;4968696;28;20053;-77
2023/04/07 00:55:20;;;;;;;23.65;11.40;;;0.60;83.40;;;;;;4973406;28;20051;-78
2023/04/07 00:57:47;;;;;;;22.52;10.93;;;0.60;83.40;;;;;;4974287;28;20061;-78
2023/04/07 01:00:14;;;;;;;30.38;12.50;;;0.60;83.50;;;;;;4954139;28;20097;-78
2023/04/07 01:02:46;;;;;;;40.85;18.90;;;0.60;83.60;;;;;;4971956;28;20055;-78
2023/04/07 01:05:29;;;;;;;36.67;14.68;;;0.50;83.20;;;;;;4950660;28;20129;-77
2023/04/07 01:08:19;;;;;;;41.67;15.77;;;0.50;83.10;;;;;;4982417;28;20057;-77
2023/04/07 01:10:46;;;;;;;46.58;18.88;;;0.40;82.80;;;;;;4961763;28;20062;-77
2023/04/07 01:13:35;;;;;;;50.28;21.17;;;0.40;82.80;;;;;;4955709;28;20698;-77
2023/04/07 01:16:08;;;;;;;36.83;16.00;;;0.30;83.30;;;;;;4949038;28;20069;-77
2023/04/07 01:18:37;;;;;;;26.90;11.85;;;0.30;83.40;;;;;;4952312;28;20043;-77
2023/04/07 01:21:12;;;;;;;27.02;11.93;;;0.20;84.10;;;;;;4948576;28;20479;-77
2023/04/07 01:23:51;;;;;;;33.33;12.15;;;0.20;83.70;;;;;;4970771;28;20051;-77
2023/04/07 01:26:25;;;;;;;22.63;10.13;;;0.10;83.90;;;;;;4971501;28;20054;-77
2023/04/07 01:29:17;;;;;;;24.05;10.38;;;0.10;84.00;;;;;;4969981;28;20050;-77
2023/04/07 01:31:46;;;;;;;29.88;11.25;;;0.00;83.80;;;;;;4966573;28;20058;-77
2023/04/07 01:34:14;;;;;;;32.65;12.07;;;0.00;84.30;;;;;;4968363;28;20057;-77
2023/04/07 01:36:42;;;;;;;24.10;10.88;;;0.00;84.20;;;;;;4967654;28;20081;-78
2023/04/07 01:39:11;;;;;;;28.77;11.13;;;0.00;84.10;;;;;;4953025;28;20062;-77
2023/04/07 01:41:38;;;;;;;27.60;10.40;;;0.00;84.40;;;;;;4968528;28;20715;-78
2023/04/07 01:44:06;;;;;;;20.67;10.25;;;0.00;84.50;;;;;;4965827;28;20129;-77
2023/04/07 01:46:33;;;;;;;23.08;10.13;;;0.00;84.60;;;;;;4968141;28;20054;-77
2023/04/07 01:49:01;;;;;;;25.40;9.95;;;0.00;84.70;;;;;;4968359;28;20047;-77
2023/04/07 01:51:32;;;;;;;22.60;10.10;;;-0.10;84.90;;;;;;4979932;28;20058;-78
2023/04/07 01:54:01;;;;;;;22.63;10.35;;;-0.10;85.10;;;;;;4965175;28;20054;-77
2023/04/07 01:56:28;;;;;;;23.55;11.35;;;-0.10;85.10;;;;;;4941286;28;20125;-77
2023/04/07 01:58:55;;;;;;;24.42;10.25;;;-0.10;85.30;;;;;;4966352;28;20133;-77
2023/04/07 02:01:22;;;;;;;21.83;9.55;;;-0.10;85.30;;;;;;4973055;28;20047;-77
2023/04/07 02:04:00;;;;;;;26.70;10.55;;;-0.10;85.20;;;;;;4951139;28;20054;-78
2023/04/07 02:06:32;;;;;;;28.67;10.52;;;-0.20;85.40;;;;;;4953275;28;20129;-77
2023/04/07 02:09:06;;;;;;;24.05;8.70;;;-0.20;85.40;;;;;;4952029;28;20706;-77
2023/04/07 02:11:34;;;;;;;26.15;9.80;;;-0.20;85.40;;;;;;4981287;28;20059;-77
2023/04/07 02:14:05;;;;;;;27.67;9.77;;;-0.20;85.50;;;;;;4974522;28;20066;-77
2023/04/07 02:16:32;;;;;;;25.75;10.18;;;-0.20;85.90;;;;;;4948272;28;20976;-77
2023/04/07 02:19:01;;;;;;;26.55;10.95;;;-0.20;86.00;;;;;;4964674;28;20109;-77
2023/04/07 02:21:29;;;;;;;28.08;9.75;;;-0.30;86.00;;;;;;4981056;28;20126;-77
2023/04/07 02:23:59;;;;;;;20.40;9.73;;;-0.30;86.20;;;;;;4965098;28;20058;-77
2023/04/07 02:26:26;;;;;;;19.50;9.45;;;-0.30;86.50;;;;;;4961274;28;20047;-77
2023/04/07 02:28:53;;;;;;;21.85;10.00;;;-0.30;86.40;;;;;;4950707;28;20679;-77
2023/04/07 02:31:19;;;;;;;24.90;10.57;;;-0.30;86.70;;;;;;4971228;28;20051;-77
2023/04/07 02:33:46;;;;;;;22.98;10.20;;;-0.40;86.50;;;;;;4942883;28;20076;-77
2023/04/07 02:36:13;;;;;;;27.10;10.15;;;-0.40;86.60;;;;;;4974035;28;20774;-77
2023/04/07 02:38:40;;;;;;;27.65;9.77;;;-0.40;87.10;;;;;;4947502;28;20046;-77
2023/04/07 02:41:07;;;;;;;18.75;9.23;;;-0.40;87.30;;;;;;4964966;28;20185;-77
2023/04/07 02:43:34;;;;;;;31.63;10.93;;;-0.40;87.60;;;;;;4965562;28;20134;-77
2023/04/07 02:46:00;;;;;;;29.83;10.50;;;-0.50;86.90;;;;;;4957560;28;20050;-77
2023/04/07 02:48:27;;;;;;;20.95;9.40;;;-0.50;87.60;;;;;;4954006;28;20066;-77
2023/04/07 02:50:54;;;;;;;29.33;10.73;;;-0.50;87.50;;;;;;4979190;28;20054;-77
2023/04/07 02:53:21;;;;;;;21.63;9.75;;;-0.50;87.30;;;;;;4947064;28;20054;-77
2023/04/07 02:55:48;;;;;;;28.08;9.93;;;-0.50;87.90;;;;;;4954491;28;20700;-77
2023/04/07 02:58:15;;;;;;;32.38;10.40;;;-0.60;87.80;;;;;;4976376;28;20042;-77
2023/04/07 03:00:42;;;;;;;25.40;9.63;;;-0.60;87.50;;;;;;4962826;28;20101;-78
2023/04/07 03:03:08;;;;;;;23.48;9.95;;;-0.70;87.60;;;;;;4971310;28;20049;-78
2023/04/07 03:05:35;;;;;;;21.17;8.65;;;-0.70;88.40;;;;;;4950008;28;20158;-78
2023/04/07 03:08:02;;;;;;;20.25;9.07;;;-0.70;88.00;;;;;;4968915;28;20051;-78
2023/04/07 03:10:29;;;;;;;18.00;8.73;;;-0.80;87.80;;;;;;4971133;28;20054;-78
2023/04/07 03:12:57;;;;;;;26.88;9.45;;;-0.80;88.30;;;;;;4966740;28;20406;-77
2023/04/07 03:15:24;;;;;;;25.90;9.18;;;-0.80;88.50;;;;;;4947755;28;20061;-77
2023/04/07 03:17:51;;;;;;;19.60;8.50;;;-0.90;88.90;;;;;;4951035;28;20066;-77
2023/04/07 03:20:18;;;;;;;16.33;8.10;;;-0.90;89.40;;;;;;4966799;28;20659;-77
2023/04/07 03:22:46;;;;;;;24.20;9.73;;;-0.90;89.20;;;;;;4965010;28;20070;-78
2023/04/07 03:25:13;;;;;;;22.30;9.35;;;-0.90;89.00;;;;;;4964946;28;20190;-77
2023/04/07 03:27:39;;;;;;;22.98;9.23;;;-1.00;89.40;;;;;;4964321;28;20510;-77
2023/04/07 03:30:07;;;;;;;23.45;8.75;;;-0.90;89.40;;;;;;4975534;28;20042;-77
2023/04/07 03:32:34;;;;;;;16.63;8.77;;;-1.00;89.50;;;;;;4947535;28;20601;-77
2023/04/07 03:35:01;;;;;;;20.75;8.35;;;-1.00;89.70;;;;;;4966749;28;20134;-77
2023/04/07 03:37:28;;;;;;;21.08;9.52;;;-1.00;89.50;;;;;;4965157;28;20070;-77
2023/04/07 03:39:54;;;;;;;29.02;8.90;;;-1.00;89.50;;;;;;4966413;28;20058;-77
2023/04/07 03:42:21;;;;;;;28.80;9.98;;;-1.00;89.90;;;;;;4945589;28;20050;-78
2023/04/07 03:44:48;;;;;;;24.92;9.43;;;-1.00;89.80;;;;;;4964721;28;20054;-77
2023/04/07 03:47:15;;;;;;;23.38;9.60;;;-1.00;89.80;;;;;;4965146;28;20775;-77
2023/04/07 03:49:42;;;;;;;19.08;7.95;;;-1.00;89.90;;;;;;4970739;28;20064;-77
2023/04/07 03:52:08;;;;;;;20.67;8.90;;;-1.10;90.10;;;;;;4954671;28;20073;-77
2023/04/07 03:54:36;;;;;;;24.88;10.40;;;-1.10;89.50;;;;;;4968703;28;20073;-77
2023/04/07 03:57:03;;;;;;;19.38;9.20;;;-1.10;90.30;;;;;;4981797;28;20058;-77
2023/04/07 03:59:29;;;;;;;21.55;9.18;;;-1.10;90.20;;;;;;4959016;28;20135;-77
2023/04/07 04:01:56;;;;;;;27.48;9.07;;;-1.10;90.80;;;;;;4953160;28;20051;-77
2023/04/07 04:04:23;;;;;;;20.58;8.27;;;-1.10;90.40;;;;;;4971384;28;20055;-77
2023/04/07 04:06:50;;;;;;;20.27;8.35;;;-1.20;90.50;;;;;;4977737;28;20093;-77
2023/04/07 04:09:17;;;;;;;21.73;8.82;;;-1.20;90.30;;;;;;4984601;28;20141;-78
2023/04/07 04:11:44;;;;;;;24.55;9.07;;;-1.20;90.80;;;;;;4967230;28;20589;-76
2023/04/07 04:14:11;;;;;;;20.20;9.13;;;-1.20;90.70;;;;;;4975212;28;20145;-77
2023/04/07 04:16:38;;;;;;;20.88;8.30;;;-1.20;90.70;;;;;;4968579;28;20047;-77
2023/04/07 04:19:05;;;;;;;23.73;8.45;;;-1.20;90.80;;;;;;4969839;28;20050;-77
2023/04/07 04:21:31;;;;;;;23.40;8.30;;;-1.20;91.10;;;;;;4959375;28;20053;-78
2023/04/07 04:23:58;;;;;;;22.42;8.38;;;-1.20;91.40;;;;;;4956643;28;20043;-78
2023/04/07 04:26:25;;;;;;;20.38;8.25;;;-1.10;91.30;;;;;;4969224;28;20054;-78
2023/04/07 04:28:52;;;;;;;21.95;7.57;;;-1.10;91.10;;;;;;4985824;28;20061;-77
2023/04/07 04:31:18;;;;;;;19.27;8.10;;;-1.00;90.80;;;;;;4973095;28;20059;-76
2023/04/07 04:33:45;;;;;;;17.33;7.55;;;-1.00;90.50;;;;;;4950822;28;20419;-76
2023/04/07 04:36:12;;;;;;;20.10;8.82;;;-0.90;90.60;;;;;;4967232;28;20069;-76
2023/04/07 04:38:39;;;;;;;24.27;7.70;;;-0.90;90.50;;;;;;4967269;28;20055;-76
2023/04/07 04:41:06;;;;;;;16.85;6.90;;;-0.80;90.60;;;;;;4975431;28;20051;-77
2023/04/07 04:43:33;;;;;;;16.50;6.57;;;-0.80;90.50;;;;;;4952836;28;20042;-78
2023/04/07 04:46:00;;;;;;;15.35;6.78;;;-0.70;90.70;;;;;;4983013;28;20427;-77
2023/04/07 04:48:27;;;;;;;18.80;7.22;;;-0.70;90.90;;;;;;4957372;28;20054;-76
2023/04/07 04:50:54;;;;;;;16.60;6.47;;;-0.60;91.20;;;;;;4966089;28;20062;-77
2023/04/07 04:53:21;;;;;;;14.73;6.55;;;-0.60;91.30;;;;;;4948884;28;20050;-77
2023/04/07 04:55:50;;;;;;;19.65;8.80;;;-0.60;91.70;;;;;;4950499;28;20054;-77
2023/04/07 04:58:19;;;;;;;22.83;8.25;;;-0.50;91.90;;;;;;4980310;28;20062;-77
2023/04/07 05:00:46;;;;;;;16.95;7.88;;;-0.50;92.00;;;;;;4971175;28;20079;-77
2023/04/07 05:03:13;;;;;;;15.73;7.05;;;-0.40;92.20;;;;;;4967415;28;20090;-77
2023/04/07 05:05:40;;;;;;;16.88;6.38;;;-0.40;92.30;;;;;;4970487;28;20051;-76
2023/04/07 05:08:10;;;;;;;14.60;6.22;;;-0.30;92.30;;;;;;4949518;28;20065;-77
2023/04/07 05:10:40;;;;;;;20.00;6.38;;;-0.30;92.00;;;;;;4987577;28;20740;-77
2023/04/07 05:13:06;;;;;;;12.07;5.97;;;-0.30;92.20;;;;;;4963605;28;20047;-77
2023/04/07 05:15:33;;;;;;;13.05;5.70;;;-0.20;92.10;;;;;;4967064;28;20058;-77
2023/04/07 05:18:00;;;;;;;14.20;6.20;;;-0.20;92.10;;;;;;4971784;28;20130;-77
2023/04/07 05:20:27;;;;;;;14.75;6.05;;;-0.10;92.20;;;;;;4965977;28;20055;-76
2023/04/07 05:22:54;;;;;;;18.25;6.20;;;-0.10;92.30;;;;;;4970427;28;20050;-77
2023/04/07 05:25:20;;;;;;;12.57;5.13;;;-0.10;92.10;;;;;;4952572;28;20050;-77
2023/04/07 05:27:47;;;;;;;20.73;6.05;;;-0.10;92.40;;;;;;4970716;28;20602;-76
2023/04/07 05:30:14;;;;;;;21.63;4.70;;;0.00;92.60;;;;;;4967619;28;20056;-76
2023/04/07 05:32:41;;;;;;;19.17;5.18;;;0.00;92.30;;;;;;4971011;28;20053;-76
2023/04/07 05:35:09;;;;;;;14.13;4.82;;;0.00;92.40;;;;;;4970555;28;20642;-75
2023/04/07 05:37:36;;;;;;;13.85;5.20;;;0.00;92.40;;;;;;4948795;28;20768;-75
2023/04/07 05:40:03;;;;;;;14.32;5.60;;;0.00;92.30;;;;;;4953475;28;20062;-76
2023/04/07 05:42:30;;;;;;;15.60;5.00;;;0.00;92.40;;;;;;4965630;28;20053;-76
2023/04/07 05:44:56;;;;;;;15.07;5.35;;;0.00;92.50;;;;;;4963672;28;20057;-77
2023/04/07 05:47:23;;;;;;;18.55;5.28;;;0.00;92.70;;;;;;4967868;28;20054;-76
2023/04/07 05:49:50;;;;;;;15.68;4.43;;;0.10;93.00;;;;;;4965112;28;20170;-76
2023/04/07 05:52:17;;;;;;;13.00;4.55;;;0.10;93.30;;;;;;4962861;28;20060;-76
2023/04/07 05:54:44;;;;;;;12.40;4.75;;;0.10;92.90;;;;;;4952348;28;20464;-77
2023/04/07 05:57:11;;;;;;;15.40;4.50;;;0.20;93.00;;;;;;4973943;28;20057;-77
2023/04/07 05:59:37;;;;;;;12.45;4.95;;;0.20;92.90;;;;;;4965124;28;20042;-77
2023/04/07 06:02:04;;;;;;;18.23;4.45;;;0.30;93.50;;;;;;4968751;28;20046;-76
2023/04/07 06:04:32;;;;;;;13.73;4.43;;;0.30;93.30;;;;;;4964430;28;20051;-77
2023/04/07 06:07:00;;;;;;;15.00;4.47;;;0.40;93.20;;;;;;4969629;28;20702;-77
2023/04/07 06:09:27;;;;;;;11.63;4.28;;;0.50;93.30;;;;;;4947201;28;20054;-77
2023/04/07 06:11:53;;;;;;;10.23;4.47;;;0.60;93.40;;;;;;4952916;28;20151;-76
2023/04/07 06:14:20;;;;;;;14.82;4.28;;;0.70;93.60;;;;;;4967476;28;20061;-77
2023/04/07 06:16:47;;;;;;;11.27;4.20;;;0.90;93.60;;;;;;4973860;28;20059;-77
2023/04/07 06:19:14;;;;;;;14.18;4.15;;;1.00;93.60;;;;;;4967332;28;20608;-77
2023/04/07 06:21:41;;;;;;;7.97;4.10;;;1.10;93.50;;;;;;4971901;28;20066;-77
2023/04/07 06:24:08;;;;;;;13.70;4.57;;;1.30;93.00;;;;;;4976378;28;20050;-77
2023/04/07 06:26:35;;;;;;;16.50;4.47;;;1.50;92.60;;;;;;4944166;28;20039;-77
2023/04/07 06:29:02;;;;;;;23.33;5.22;;;1.70;92.10;;;;;;4965583;28;20050;-75
2023/04/07 06:31:28;;;;;;;10.88;5.22;;;1.90;91.40;;;;;;4970510;28;20050;-76
2023/04/07 06:33:55;;;;;;;10.70;4.30;;;2.10;91.10;;;;;;4982140;28;20058;-76
2023/04/07 06:36:22;;;;;;;13.90;5.10;;;2.40;89.80;;;;;;4962966;28;20182;-76
2023/04/07 06:38:50;;;;;;;9.93;4.47;;;2.50;89.00;;;;;;4969221;28;20057;-78
2023/04/07 06:41:16;;;;;;;8.43;3.75;;;2.70;87.90;;;;;;4963982;28;20105;-77
2023/04/07 06:43:48;;;;;;;11.73;4.13;;;2.90;87.90;;;;;;4970853;28;20046;-77
2023/04/07 06:46:16;;;;;;;12.68;5.10;;;3.00;87.50;;;;;;4975278;28;20462;-76
2023/04/07 06:48:43;;;;;;;13.43;4.75;;;3.20;87.10;;;;;;4950524;28;20145;-77
2023/04/07 06:51:10;;;;;;;10.00;5.03;;;3.40;86.40;;;;;;4947383;28;20487;-78
2023/04/07 06:53:37;;;;;;;10.43;5.45;;;3.50;85.80;;;;;;4950543;28;20054;-76
2023/04/07 06:56:06;;;;;;;10.88;4.05;;;3.70;85.70;;;;;;4988802;28;20047;-78
2023/04/07 06:58:34;;;;;;;8.70;3.75;;;3.90;84.70;;;;;;4968130;28;20165;-76
2023/04/07 07:01:02;;;;;;;8.88;4.28;;;4.10;83.70;;;;;;4963561;28;20046;-75
2023/04/07 07:03:30;;;;;;;8.80;3.72;;;4.20;83.50;;;;;;4965295;28;20527;-75
2023/04/07 07:05:58;;;;;;;12.73;4.35;;;4.20;83.20;;;;;;4973559;28;20698;-75
2023/04/07 07:08:27;;;;;;;9.60;3.90;;;4.30;83.20;;;;;;4979208;28;20050;-75
2023/04/07 07:10:54;;;;;;;7.95;3.67;;;4.40;82.90;;;;;;4984263;28;20054;-80
2023/04/07 07:13:23;;;;;;;9.68;2.85;;;4.40;82.60;;;;;;4971519;28;20381;-78
2023/04/07 07:15:50;;;;;;;7.03;2.80;;;4.50;82.70;;;;;;4983296;28;20053;-76
2023/04/07 07:18:18;;;;;;;7.07;2.90;;;4.60;82.00;;;;;;4953184;28;20625;-81
2023/04/07 07:20:45;;;;;;;9.32;3.13;;;4.60;81.60;;;;;;4972695;28;20106;-76
2023/04/07 07:23:12;;;;;;;5.95;3.15;;;4.80;81.20;;;;;;4963280;28;20043;-77
2023/04/07 07:25:39;;;;;;;7.07;3.00;;;4.90;80.50;;;;;;4967015;28;20735;-77
2023/04/07 07:28:06;;;;;;;6.30;2.83;;;5.00;79.80;;;;;;4968082;28;20047;-76
2023/04/07 07:30:32;;;;;;;7.43;3.25;;;5.10;80.00;;;;;;4967045;28;20069;-76
2023/04/07 07:32:59;;;;;;;4.78;2.80;;;5.30;79.00;;;;;;4966340;28;20054;-76
2023/04/07 07:35:26;;;;;;;6.72;3.22;;;5.60;78.70;;;;;;4970154;28;20550;-76
2023/04/07 07:37:53;;;;;;;16.90;3.70;;;5.80;77.90;;;;;;4968427;28;20444;-77
2023/04/07 07:40:20;;;;;;;8.00;3.25;;;5.90;77.20;;;;;;4972483;28;20053;-76
2023/04/07 07:42:47;;;;;;;10.00;4.30;;;6.10;76.80;;;;;;4974492;28;20046;-77
2023/04/07 07:45:14;;;;;;;12.07;3.17;;;6.50;75.30;;;;;;4969123;28;20672;-75
2023/04/07 07:47:41;;;;;;;6.20;3.10;;;6.60;74.50;;;;;;4962804;28;20051;-74
2023/04/07 07:50:08;;;;;;;5.72;2.83;;;7.00;73.90;;;;;;4968451;28;20054;-73
2023/04/07 07:52:35;;;;;;;4.68;2.75;;;7.40;72.90;;;;;;4968376;28;20458;-73
2023/04/07 07:55:02;;;;;;;7.05;2.67;;;7.60;71.50;;;;;;4952525;28;20053;-73
2023/04/07 07:57:32;;;;;;;4.88;2.85;;;7.70;71.30;;;;;;4970096;28;20424;-72
2023/04/07 07:59:59;;;;;;;3.28;2.50;;;7.90;70.90;;;;;;4967369;28;20062;-72
2023/04/07 08:02:30;;;;;;;5.32;2.70;;;8.30;69.80;;;;;;4970768;28;20052;-73
2023/04/07 08:04:57;;;;;;;5.18;2.38;;;8.60;67.90;;;;;;4986253;28;20452;-73
2023/04/07 08:07:24;;;;;;;7.28;2.83;;;8.70;68.00;;;;;;4955406;28;20085;-74
2023/04/07 08:09:51;;;;;;;7.30;2.70;;;9.10;67.10;;;;;;4985331;28;20442;-74
2023/04/07 08:12:18;;;;;;;7.38;2.70;;;9.40;66.10;;;;;;4952094;28;20050;-72
2023/04/07 08:14:45;;;;;;;4.63;2.75;;;10.10;65.10;;;;;;4979915;28;20514;-73
2023/04/07 08:17:11;;;;;;;5.80;2.20;;;10.90;62.80;;;;;;4969382;28;20054;-73
2023/04/07 08:19:38;;;;;;;3.95;2.33;;;11.10;59.70;;;;;;4972235;28;20046;-74
2023/04/07 08:22:05;;;;;;;5.25;2.65;;;11.00;59.60;;;;;;4977768;28;20464;-74
2023/04/07 08:24:32;;;;;;;5.47;2.50;;;11.30;59.70;;;;;;4967950;28;20058;-73
2023/04/07 08:27:00;;;;;;;6.32;2.45;;;11.20;57.90;;;;;;4969562;28;20566;-72
2023/04/07 08:29:27;;;;;;;6.72;3.45;;;10.80;58.60;;;;;;4971230;28;20687;-73
2023/04/07 08:31:56;;;;;;;5.32;2.40;;;10.50;59.50;;;;;;4975946;28;20057;-73
2023/04/07 08:34:23;;;;;;;4.93;2.70;;;10.20;60.60;;;;;;4969816;28;20058;-73
2023/04/07 08:36:50;;;;;;;5.53;2.92;;;10.00;60.50;;;;;;4966412;28;20046;-75
2023/04/07 08:39:17;;;;;;;7.32;3.05;;;9.70;61.30;;;;;;4979136;28;20089;-73
2023/04/07 08:41:44;;;;;;;8.05;3.55;;;9.40;62.30;;;;;;4951678;28;20478;-74
2023/04/07 08:44:13;;;;;;;68.28;11.73;;;9.30;63.40;;;;;;4979113;28;20054;-73
2023/04/07 08:46:41;;;;;;;6.13;3.22;;;9.20;64.00;;;;;;4974800;28;20050;-72
2023/04/07 08:49:12;;;;;;;8.40;3.65;;;8.70;64.30;;;;;;4964503;28;20109;-72
2023/04/07 08:51:48;;;;;;;7.10;4.85;;;8.50;64.40;;;;;;4977420;28;20129;-72
2023/04/07 08:54:17;;;;;;;;;;;8.50;64.90;;;;;;4976633;28;20054;-73
2023/04/07 08:56:44;;;;;;;10.43;3.60;;;8.60;65.00;;;;;;4968597;28;19926;-72
2023/04/07 08:59:13;;;;;;;6.22;3.13;;;8.70;64.30;;;;;;4969994;28;20051;-72
2023/04/07 09:01:40;;;;;;;71.65;14.00;;;8.90;63.80;;;;;;4968157;28;20051;-72
2023/04/07 09:04:09;;;;;;;68.97;11.45;;;8.70;63.50;;;;;;4967144;28;20403;-71
2023/04/07 09:06:36;;;;;;;124.28;18.40;;;8.90;63.80;;;;;;4971963;28;20054;-71
2023/04/07 09:09:06;;;;;;;24.90;5.35;;;9.00;63.60;;;;;;4964535;28;20133;-74
2023/04/07 09:11:39;;;;;;;97.93;15.77;;;9.20;63.30;;;;;;4967525;28;20498;-71
2023/04/07 09:14:06;;;;;;;10.00;4.00;;;9.40;62.50;;;;;;4952638;28;20050;-72
2023/04/07 09:16:34;;;;;;;5.80;3.83;;;9.70;63.20;;;;;;4969239;28;20539;-72
2023/04/07 09:19:01;;;;;;;7.05;4.15;;;9.70;63.20;;;;;;4950855;28;20058;-70
2023/04/07 09:21:47;;;;;;;8.50;4.03;;;9.90;61.70;;;;;;4968248;28;20162;-73
2023/04/07 09:24:22;;;;;;;6.00;3.80;;;10.10;60.50;;;;;;4966234;28;20058;-72
2023/04/07 09:26:50;;;;;;;12.57;6.10;;;10.10;60.00;;;;;;4962588;28;20051;-68
2023/04/07 09:29:20;;;;;;;5.93;3.97;;;10.00;59.20;;;;;;4971204;28;20047;-70
2023/04/07 09:31:50;;;;;;;7.97;4.20;;;9.60;59.80;;;;;;4982212;28;20154;-81
2023/04/07 09:34:35;;;;;;;9.35;4.20;;;9.50;60.70;;;;;;4971463;28;20047;-86
2023/04/07 09:37:08;;;;;;;9.40;3.90;;;9.40;61.30;;;;;;4970976;28;20043;-86
2023/04/07 09:39:52;;;;;;;6.10;3.53;;;9.30;61.70;;;;;;4953435;28;20451;-85
2023/04/07 09:42:20;;;;;;;7.00;3.97;;;9.20;62.50;;;;;;4963189;28;20770;-74
2023/04/07 09:44:47;;;;;;;7.93;4.72;;;9.00;62.20;;;;;;4949192;28;20043;-75
2023/04/07 09:47:14;;;;;;;8.85;4.55;;;8.90;62.80;;;;;;4963480;28;20141;-76
2023/04/07 09:49:52;;;;;;;284.10;47.65;;;8.60;64.10;;;;;;4957106;28;20292;-73
2023/04/07 09:52:42;;;;;;;132.50;20.50;;;8.50;64.30;;;;;;4965816;28;20073;-72
2023/04/07 09:55:23;;;;;;;18.83;8.13;;;8.40;64.80;;;;;;4976840;28;20137;-71
2023/04/07 09:57:50;;;;;;;10.93;5.75;;;8.30;65.10;;;;;;4980413;28;20054;-73
2023/04/07 10:00:18;;;;;;;13.43;6.95;;;8.20;65.40;;;;;;4970642;28;20046;-75
2023/04/07 10:02:45;;;;;;;10.13;5.53;;;8.10;65.90;;;;;;4969937;28;20708;-74
2023/04/07 10:05:12;;;;;;;13.05;7.38;;;8.10;66.30;;;;;;4989672;28;20059;-73
2023/04/07 10:07:40;;;;;;;19.55;10.48;;;8.00;67.30;;;;;;4981805;28;20093;-74
2023/04/07 10:10:09;;;;;;;15.63;8.55;;;7.90;67.70;;;;;;4962094;28;20061;-77
2023/04/07 10:12:40;;;;;;;14.07;7.78;;;7.90;68.90;;;;;;4952788;28;20061;-74
2023/04/07 10:15:10;;;;;;;32.38;15.73;;;8.00;69.00;;;;;;4955949;28;20630;-74
2023/04/07 10:17:39;;;;;;;101.45;39.25;;;7.80;70.60;;;;;;4965447;28;20496;-75
2023/04/07 10:20:08;;;;;;;26.10;11.18;;;7.70;70.20;;;;;;4968770;28;20154;-74
2023/04/07 10:22:37;;;;;;;17.10;8.63;;;7.50;70.30;;;;;;4968780;28;20047;-75
2023/04/07 10:25:10;;;;;;;45.97;21.38;;;7.40;70.70;;;;;;4966507;28;20061;-74
2023/04/07 10:27:58;;;;;;;25.33;14.52;;;7.40;73.20;;;;;;4983941;28;20154;-76
2023/04/07 10:30:30;;;;;;;26.55;15.05;;;7.40;74.70;;;;;;4967770;28;20050;-79
2023/04/07 10:32:57;;;;;;;25.17;11.88;;;7.20;75.30;;;;;;4949451;28;20863;-75
2023/04/07 10:35:25;;;;;;;22.67;9.93;;;7.00;76.30;;;;;;4973754;28;20089;-73
2023/04/07 10:38:07;;;;;;;14.98;6.90;;;6.90;77.30;;;;;;4964947;28;20154;-74
2023/04/07 10:40:35;;;;;;;22.85;7.93;;;6.60;79.20;;;;;;4961599;28;20690;-78
2023/04/07 10:43:02;;;;;;;18.65;7.57;;;6.40;80.30;;;;;;4946834;28;20109;-77
2023/04/07 10:45:45;;;;;;;15.40;6.88;;;6.40;82.10;;;;;;4981746;28;20046;-76
2023/04/07 10:48:13;;;;;;;20.67;8.32;;;6.30;82.70;;;;;;4981706;28;20051;-76
2023/04/07 10:50:41;;;;;;;14.00;7.25;;;6.20;82.40;;;;;;4964793;28;20785;-72
2023/04/07 10:53:08;;;;;;;22.63;10.50;;;6.10;84.00;;;;;;4949601;28;20050;-76
2023/04/07 10:55:39;;;;;;;30.75;13.80;;;6.10;84.80;;;;;;4949993;28;20463;-74
2023/04/07 10:58:25;;;;;;;33.25;13.43;;;6.10;84.90;;;;;;4966616;28;20047;-73
2023/04/07 11:01:13;;;;;;;50.03;21.73;;;5.90;85.00;;;;;;4945636;28;20047;-74
2023/04/07 11:03:50;;;;;;;37.47;14.02;;;5.90;86.80;;;;;;4961631;28;20057;-72
2023/04/07 11:06:17;;;;;;;19.02;8.85;;;5.90;86.60;;;;;;4953541;28;20142;-73
2023/04/07 11:08:46;;;;;;;57.72;24.55;;;5.90;87.90;;;;;;4980635;28;20054;-72
2023/04/07 11:11:36;;;;;;;105.78;40.00;;;5.90;88.40;;;;;;4983481;28;20055;-71
2023/04/07 11:14:03;;;;;;;130.00;50.10;;;5.80;88.20;;;;;;4965233;28;20495;-72
2023/04/07 11:16:57;;;;;;;176.48;62.22;;;5.80;88.10;;;;;;4981109;28;20062;-74
2023/04/07 11:19:24;;;;;;;139.30;49.60;;;5.70;88.20;;;;;;4970141;28;20093;-74
2023/04/07 11:22:14;;;;;;;80.60;30.38;;;5.60;89.20;;;;;;4979069;28;20061;-73
2023/04/07 11:24:55;;;;;;;67.13;24.80;;;5.50;88.70;;;;;;4962859;28;20785;-74
2023/04/07 11:27:22;;;;;;;58.17;21.02;;;5.60;89.40;;;;;;4977362;28;20054;-73
2023/04/07 11:29:49;;;;;;;36.40;13.27;;;5.60;90.00;;;;;;4960668;28;20693;-73
2023/04/07 11:32:24;;;;;;;23.33;11.18;;;5.50;88.90;;;;;;4960710;28;20050;-73
2023/04/07 11:34:52;;;;;;;46.65;19.95;;;5.50;88.90;;;;;;4970126;28;20134;-75
2023/04/07 11:37:23;;;;;;;32.05;14.55;;;5.60;90.30;;;;;;4953829;28;20058;-73
2023/04/07 11:39:52;;;;;;;45.47;17.95;;;5.50;89.30;;;;;;4952824;28;20051;-76
2023/04/07 11:42:32;;;;;;;38.70;18.05;;;5.40;90.50;;;;;;4971449;28;20043;-74
2023/04/07 11:44:59;;;;;;;41.67;14.88;;;5.40;90.20;;;;;;4970184;28;20055;-74
2023/04/07 11:47:37;;;;;;;70.30;13.50;;;5.50;90.20;;;;;;4955018;28;20051;-71
2023/04/07 11:50:06;;;;;;;53.30;13.60;;;5.50;90.90;;;;;;4971448;28;20054;-73
2023/04/07 11:52:47;;;;;;;18.73;9.10;;;5.60;91.10;;;;;;4970792;28;20451;-72
2023/04/07 11:55:20;;;;;;;65.07;21.45;;;5.50;90.40;;;;;;4957938;28;20066;-71
2023/04/07 11:57:50;;;;;;;68.63;22.38;;;5.60;90.90;;;;;;4968448;28;20043;-75
2023/04/07 12:00:18;;;;;;;63.85;21.52;;;5.60;89.80;;;;;;4984256;28;20189;-76
2023/04/07 12:02:47;;;;;;;57.10;21.60;;;5.60;91.80;;;;;;4975672;28;20454;-76
2023/04/07 12:05:14;;;;;;;45.30;15.65;;;5.70;92.10;;;;;;4972552;28;20441;-75
2023/04/07 12:07:52;;;;;;;51.75;18.95;;;5.60;90.50;;;;;;4950624;28;20053;-75
2023/04/07 12:10:26;;;;;;;54.35;19.30;;;5.60;90.20;;;;;;4973219;28;20053;-77
2023/04/07 12:12:53;;;;;;;49.13;17.13;;;5.60;90.50;;;;;;4969196;28;20061;-75
2023/04/07 12:15:20;;;;;;;53.90;20.67;;;5.60;90.40;;;;;;4972741;28;20066;-75
2023/04/07 12:17:48;;;;;;;27.20;12.00;;;5.50;90.20;;;;;;4968911;28;20057;-74
2023/04/07 12:20:15;;;;;;;47.78;18.48;;;5.50;91.60;;;;;;4966682;28;20051;-74
2023/04/07 12:22:42;;;;;;;34.22;12.40;;;5.50;91.30;;;;;;4968342;28;20043;-73
2023/04/07 12:25:21;;;;;;;31.58;11.68;;;5.40;91.00;;;;;;4970570;28;20078;-73
2023/04/07 12:27:48;;;;;;;37.88;14.70;;;5.30;90.60;;;;;;4965996;28;20042;-75
2023/04/07 12:30:15;;;;;;;32.95;13.63;;;5.40;91.30;;;;;;4974824;28;20560;-75
2023/04/07 12:32:42;;;;;;;49.25;16.73;;;5.40;90.50;;;;;;4982145;28;20055;-75
2023/04/07 12:35:09;;;;;;;40.40;15.75;;;5.40;90.90;;;;;;4975410;28;20054;-75
2023/04/07 12:37:36;;;;;;;23.33;9.32;;;5.40;90.90;;;;;;4975567;28;20141;-75
2023/04/07 12:40:03;;;;;;;47.95;15.38;;;5.30;89.80;;;;;;4980988;28;20050;-74
2023/04/07 12:42:30;;;;;;;49.15;17.40;;;5.20;90.20;;;;;;4986456;28;20046;-74
2023/04/07 12:44:57;;;;;;;22.60;11.63;;;5.20;91.00;;;;;;4956526;28;20818;-74
2023/04/07 12:47:24;;;;;;;36.97;14.30;;;5.10;90.40;;;;;;4962829;28;20054;-75
2023/04/07 12:49:51;;;;;;;101.25;26.83;;;5.10;91.30;;;;;;4967711;28;20526;-74